Lake Lure, North Carolina
Current Conditions -  °F | °C
As of 10:15 AM on Wednesday 26 Nov 2014 (Local Time) from KFQD Reporting Station
Drizzle Drizzle  
Wind Chill: 43°   Ceiling: 7500
Heat Index: 43°   Visibility: 10mi
Dew Point: 42°   Wind: 0mph
Humidity: 95%   Direction: NA
Pressure: 30.02"   Gusts: NA
Location:  35.43°N, 82.2°W
Report Text: KFQD 261515Z AUTO 00000KT 10SM -DZ SCT027 BKN075 OVC100 06/05 A3002 RMK AO2 T00620054
Loading
Personal Weather Stations






























Interactive Weather Map New forecast layout! Learn more

10-Day Weather Forecast

Advertisements
Track Severe Weather on mobile